• location
  • image
Airport

AP V2 EN

 

 

Click here to view short presentation ->

Today

Friday, 19 September 2014

Weather Forecast

Siauliai 18 °C
   

Aviation Weather Forecast

[source: ADDS]
METAR
EYSA 191450Z 15009KT CAVOK 18/09 Q1021 =
TAF
TAF EYSA 191400Z 1915/1924 14012KT 9000 SCT035 =
SR / SS: 04:08 / 16:34 UTC (EYSA 2014-09-19)

Who's Online

We have 24 guests online

tic logo en